Terminal Aerodrome Forecast
Issued by NWS Burlington, VT

Home | Current Version | Previous Version | Text Only | Print | Product List | Glossary On
Versions: 1 2 3 4 5 6 7 8 9 10 11 12 13 14 15 16 17 18
000
FTUS41 KBTV 191549 AAB
TAFBTV
TAF AMD
KBTV 191549Z 1916/2012 28018G28KT P6SM VCSH OVC040
      TEMPO 1916/1917 4SM -SHSN BKN025
     FM191900 28019G33KT P6SM OVC050
     FM200200 29014G22KT P6SM BKN050 OVC100=

USA.gov is the U.S. government's official web portal to all federal, state and local government web resources and services.